createdAt,value
2023-01-19T00:02:06.214Z,48.83
2023-01-19T00:04:38.948Z,47.27
2023-01-19T00:07:11.746Z,43.48
2023-01-19T00:09:45.295Z,41.90
2023-01-19T00:12:18.264Z,47.73
2023-01-19T00:14:50.974Z,45.98
2023-01-19T00:17:23.835Z,45.85
2023-01-19T00:19:56.548Z,40.00
2023-01-19T00:22:29.582Z,42.53
2023-01-19T00:25:02.978Z,43.23
2023-01-19T00:27:35.971Z,46.08
2023-01-19T00:30:10.458Z,44.10
2023-01-19T00:32:43.938Z,50.05
2023-01-19T00:35:16.910Z,43.30
2023-01-19T00:37:49.631Z,44.65
2023-01-19T00:40:22.424Z,43.75
2023-01-19T00:42:55.773Z,48.17
2023-01-19T00:45:28.845Z,47.65
2023-01-19T00:48:01.816Z,44.10
2023-01-19T00:50:35.215Z,39.30
2023-01-19T00:53:07.878Z,42.45
2023-01-19T00:55:40.605Z,46.28
2023-01-19T00:58:13.457Z,46.02
2023-01-19T01:00:46.673Z,41.75
2023-01-19T01:03:19.647Z,45.85
2023-01-19T01:05:52.245Z,52.20
2023-01-19T01:08:25.047Z,39.23
2023-01-19T01:10:58.731Z,45.33
2023-01-19T01:13:32.366Z,48.35
2023-01-19T01:18:38.783Z,38.83
2023-01-19T01:21:13.401Z,46.92
2023-01-19T01:26:17.728Z,43.45
2023-01-19T01:28:50.890Z,43.02
2023-01-19T01:31:24.205Z,39.65
2023-01-19T01:33:57.634Z,43.90
2023-01-19T01:36:32.994Z,43.40
2023-01-19T01:39:06.817Z,45.40
2023-01-19T01:41:39.806Z,42.75
2023-01-19T01:44:51.666Z,53.10
2023-01-19T01:47:40.635Z,40.78
2023-01-19T01:50:30.221Z,46.18
2023-01-19T01:53:09.627Z,43.52
2023-01-19T01:55:47.063Z,51.28
2023-01-19T01:58:20.204Z,44.60
2023-01-19T02:01:10.783Z,46.00
2023-01-19T02:03:43.766Z,39.75
2023-01-19T02:06:17.034Z,45.43
2023-01-19T02:09:23.067Z,41.93
2023-01-19T02:12:14.091Z,45.60
2023-01-19T02:14:46.859Z,37.05
2023-01-19T02:17:19.881Z,44.33
2023-01-19T02:19:52.729Z,42.17
2023-01-19T02:22:37.385Z,44.85
2023-01-19T02:25:10.624Z,42.00
2023-01-19T02:27:43.628Z,43.20
2023-01-19T02:30:17.588Z,42.95
2023-01-19T02:32:51.430Z,39.92
2023-01-19T02:35:25.709Z,44.95
2023-01-19T02:37:59.564Z,37.23
2023-01-19T02:40:33.102Z,41.37
2023-01-19T02:43:08.458Z,41.00
2023-01-19T02:45:42.066Z,41.45
2023-01-19T02:48:16.270Z,38.70
2023-01-19T02:56:35.118Z,41.73
2023-01-19T02:59:28.134Z,44.85
2023-01-19T03:02:39.215Z,42.27
2023-01-19T03:05:44.848Z,41.13
2023-01-19T03:08:24.852Z,40.48
2023-01-19T03:11:12.699Z,40.45
2023-01-19T03:14:02.077Z,43.50
2023-01-19T03:16:57.817Z,41.73
2023-01-19T03:19:37.702Z,43.20
2023-01-19T03:22:16.474Z,42.98
2023-01-19T03:24:50.201Z,41.75
2023-01-19T03:27:29.834Z,43.15
2023-01-19T03:30:07.858Z,43.05
2023-01-19T03:32:46.027Z,45.73
2023-01-19T03:35:20.782Z,41.85
2023-01-19T03:37:58.313Z,42.85
2023-01-19T03:40:32.911Z,41.70
2023-01-19T03:43:06.322Z,44.40
2023-01-19T03:45:40.421Z,41.40
2023-01-19T03:48:13.315Z,47.48
2023-01-19T03:50:47.440Z,41.08
2023-01-19T03:53:23.818Z,38.00
2023-01-19T03:55:57.296Z,41.63
2023-01-19T03:58:30.082Z,45.58
2023-01-19T04:01:04.470Z,42.43
2023-01-19T04:03:37.218Z,41.80
2023-01-19T04:06:11.431Z,38.10
2023-01-19T04:08:44.105Z,43.73
2023-01-19T04:11:16.852Z,45.30
2023-01-19T04:13:50.484Z,43.02
2023-01-19T04:16:23.730Z,43.90
2023-01-19T04:18:57.591Z,45.25
2023-01-19T04:21:30.338Z,42.98
2023-01-19T04:24:03.044Z,42.13
2023-01-19T04:26:36.037Z,38.63
2023-01-19T04:29:09.000Z,42.95
2023-01-19T04:31:42.354Z,41.40
2023-01-19T04:34:15.428Z,46.77
2023-01-19T04:36:49.963Z,42.62
2023-01-19T04:39:23.892Z,49.85
2023-01-19T04:41:57.819Z,42.70
2023-01-19T04:44:31.503Z,51.08
2023-01-19T04:47:04.402Z,43.70
2023-01-19T04:49:39.167Z,44.40
2023-01-19T04:52:12.465Z,42.35
2023-01-19T04:54:45.567Z,44.63
2023-01-19T04:57:18.285Z,46.40
2023-01-19T04:59:51.537Z,44.67
2023-01-19T05:02:25.184Z,44.40
2023-01-19T05:04:58.109Z,43.58
2023-01-19T05:07:31.023Z,37.53
2023-01-19T05:10:04.369Z,46.55
2023-01-19T05:12:37.856Z,49.23
2023-01-19T05:15:12.186Z,46.95
2023-01-19T05:17:46.524Z,48.87
2023-01-19T05:20:19.520Z,43.40
2023-01-19T05:22:53.706Z,47.98
2023-01-19T05:25:27.139Z,43.70
2023-01-19T05:28:00.216Z,48.33
2023-01-19T05:30:33.145Z,43.85
2023-01-19T05:33:06.486Z,46.37
2023-01-19T05:35:40.077Z,42.17
2023-01-19T05:38:13.620Z,45.23
2023-01-19T05:40:49.067Z,43.63
2023-01-19T05:43:22.055Z,44.70
2023-01-19T05:45:54.796Z,45.15
2023-01-19T05:48:28.054Z,44.45
2023-01-19T05:51:02.688Z,44.27
2023-01-19T05:53:35.411Z,46.18
2023-01-19T05:56:10.179Z,35.90
2023-01-19T05:58:42.913Z,40.73
2023-01-19T06:01:15.703Z,43.92
2023-01-19T06:03:49.172Z,46.58
2023-01-19T06:06:22.064Z,45.73
2023-01-19T06:08:54.877Z,45.25
2023-01-19T06:11:28.722Z,46.28
2023-01-19T06:14:02.302Z,50.23
2023-01-19T06:16:35.519Z,47.15
2023-01-19T06:19:08.489Z,43.33
2023-01-19T06:21:41.187Z,41.15
2023-01-19T06:24:14.585Z,45.03
2023-01-19T06:26:47.345Z,47.10
2023-01-19T06:29:20.210Z,39.18
2023-01-19T06:31:53.367Z,43.48
2023-01-19T06:34:27.737Z,47.30
2023-01-19T06:37:01.189Z,44.27
2023-01-19T06:39:33.938Z,43.30
2023-01-19T06:42:06.884Z,48.80
2023-01-19T06:44:41.515Z,43.20
2023-01-19T06:47:16.546Z,41.85
2023-01-19T06:49:49.335Z,46.45
2023-01-19T06:52:22.366Z,51.25
2023-01-19T06:54:54.957Z,47.23
2023-01-19T06:57:29.443Z,46.68
2023-01-19T07:00:05.496Z,48.33
2023-01-19T07:02:40.784Z,47.25
2023-01-19T07:05:14.680Z,45.95
2023-01-19T07:07:56.790Z,38.58
2023-01-19T07:11:25.247Z,48.38
2023-01-19T07:13:04.421Z,44.03
2023-01-19T07:15:37.936Z,45.63
2023-01-19T07:18:10.869Z,45.58
2023-01-19T07:20:45.663Z,43.30
2023-01-19T07:23:19.489Z,45.38
2023-01-19T07:25:52.591Z,41.83
2023-01-19T07:28:25.835Z,51.23
2023-01-19T07:30:58.729Z,46.10
2023-01-19T07:33:31.973Z,44.77
2023-01-19T07:36:04.743Z,46.65
2023-01-19T07:38:38.201Z,51.60
2023-01-19T07:41:11.902Z,50.40
2023-01-19T07:43:44.784Z,43.58
2023-01-19T07:46:17.696Z,47.65
2023-01-19T07:48:50.579Z,43.63
2023-01-19T07:51:23.412Z,37.65
2023-01-19T07:53:56.252Z,44.88
2023-01-19T07:56:32.744Z,43.65
2023-01-19T07:59:07.059Z,61.15
2023-01-19T08:01:40.908Z,41.20
2023-01-19T08:04:13.769Z,43.17
2023-01-19T08:06:47.809Z,43.30
2023-01-19T08:09:21.217Z,44.77
2023-01-19T08:11:53.930Z,45.65
2023-01-19T08:14:26.624Z,39.63
2023-01-19T08:17:04.231Z,38.25
2023-01-19T08:19:36.983Z,39.10
2023-01-19T08:22:09.836Z,39.73
2023-01-19T08:24:43.466Z,45.20
2023-01-19T08:27:16.292Z,40.05
2023-01-19T08:29:49.084Z,39.45
2023-01-19T08:32:21.875Z,40.63
2023-01-19T08:34:54.532Z,41.65
2023-01-19T08:37:27.541Z,42.35
2023-01-19T08:40:01.582Z,38.10
2023-01-19T08:42:34.469Z,38.20
2023-01-19T08:45:09.601Z,35.63
2023-01-19T08:47:43.243Z,37.98
2023-01-19T08:50:16.080Z,41.45
2023-01-19T08:52:48.787Z,39.75
2023-01-19T08:55:21.789Z,42.90
2023-01-19T08:57:57.351Z,42.40
2023-01-19T09:10:17.673Z,47.17
2023-01-19T09:12:51.285Z,47.80
2023-01-19T09:15:24.593Z,39.08
2023-01-19T09:17:58.558Z,41.80
2023-01-19T09:20:32.687Z,41.02
2023-01-19T09:23:05.830Z,39.73
2023-01-19T09:25:45.712Z,45.17
2023-01-19T09:28:19.818Z,50.73
2023-01-19T09:30:52.936Z,42.55
2023-01-19T09:33:26.528Z,41.53
2023-01-19T09:35:59.770Z,43.98
2023-01-19T09:38:33.190Z,42.15
2023-01-19T09:41:12.295Z,36.25
2023-01-19T09:44:00.779Z,48.78
2023-01-19T09:46:42.585Z,54.15
2023-01-19T09:49:18.353Z,40.88
2023-01-19T09:51:53.394Z,40.90
2023-01-19T09:54:53.120Z,36.60
2023-01-19T09:57:27.819Z,49.42
2023-01-19T10:00:00.953Z,36.73
2023-01-19T10:02:49.803Z,40.73
2023-01-19T10:05:46.541Z,41.40
2023-01-19T10:08:24.041Z,44.10
2023-01-19T10:10:59.454Z,38.38
2023-01-19T10:13:52.621Z,41.40
2023-01-19T10:16:39.550Z,41.70
2023-01-19T10:19:31.230Z,33.63
2023-01-19T10:22:08.192Z,46.80
2023-01-19T10:24:43.372Z,44.08
2023-01-19T10:27:20.165Z,45.40
2023-01-19T10:29:53.247Z,44.73
2023-01-19T10:32:36.115Z,42.60
2023-01-19T10:35:26.885Z,42.00
2023-01-19T10:38:02.364Z,46.13
2023-01-19T10:40:59.761Z,48.08
2023-01-19T10:43:43.609Z,45.03
2023-01-19T10:46:48.013Z,41.53
2023-01-19T10:49:43.520Z,45.80
2023-01-19T10:52:39.948Z,39.10
2023-01-19T10:55:17.516Z,43.63
2023-01-19T10:57:53.182Z,48.92
2023-01-19T11:00:43.541Z,44.80
2023-01-19T11:03:31.697Z,45.38
2023-01-19T11:06:21.088Z,54.35
2023-01-19T11:08:54.969Z,47.40
2023-01-19T11:11:27.703Z,47.98
2023-01-19T11:14:15.629Z,44.38
2023-01-19T11:16:52.162Z,48.35
2023-01-19T11:19:31.207Z,46.25
2023-01-19T11:22:23.216Z,46.90
2023-01-19T11:25:02.589Z,45.78
2023-01-19T11:27:38.135Z,47.62
2023-01-19T11:30:23.414Z,49.42
2023-01-19T11:32:56.619Z,55.40
2023-01-19T11:35:42.851Z,48.45
2023-01-19T11:38:23.458Z,44.42
2023-01-19T11:40:59.320Z,74.15
2023-01-19T11:43:48.275Z,52.03
2023-01-19T11:46:07.492Z,50.88
2023-01-19T11:48:48.226Z,49.40
2023-01-19T11:51:23.416Z,49.60
2023-01-19T11:53:56.359Z,47.45
2023-01-19T11:56:31.130Z,43.00
2023-01-19T11:59:05.579Z,41.40
2023-01-19T12:01:41.858Z,48.40
2023-01-19T12:04:25.355Z,47.05
2023-01-19T12:07:00.330Z,42.53
2023-01-19T12:09:38.019Z,48.42
2023-01-19T12:12:32.351Z,51.02
2023-01-19T12:15:09.892Z,53.73
2023-01-19T12:17:50.640Z,56.10
2023-01-19T12:20:39.294Z,47.05
2023-01-19T12:23:45.492Z,53.87
2023-01-19T12:29:15.176Z,39.98
2023-01-19T12:31:59.765Z,45.65
2023-01-19T12:34:52.210Z,45.25
2023-01-19T12:37:35.934Z,43.23
2023-01-19T12:40:31.621Z,44.67
2023-01-19T12:43:06.868Z,43.92
2023-01-19T12:45:40.313Z,44.45
2023-01-19T12:48:26.529Z,48.37
2023-01-19T12:54:01.886Z,57.85
2023-01-19T12:56:37.829Z,47.53
2023-01-19T12:59:15.724Z,49.18
2023-01-19T13:02:10.340Z,48.52
2023-01-19T13:04:57.671Z,54.63
2023-01-19T13:07:30.520Z,57.40
2023-01-19T13:10:06.531Z,54.67
2023-01-19T13:12:39.557Z,63.35
2023-01-19T13:15:36.023Z,58.45
2023-01-19T13:18:11.051Z,52.75
2023-01-19T13:21:00.058Z,54.63
2023-01-19T13:23:55.318Z,62.13
2023-01-19T13:26:41.029Z,57.58
2023-01-19T13:29:38.732Z,63.60
2023-01-19T13:32:18.950Z,56.40
2023-01-19T13:34:57.513Z,58.08
2023-01-19T13:37:41.951Z,47.93
2023-01-19T13:40:24.141Z,54.10
2023-01-19T13:42:57.148Z,54.65
2023-01-19T13:45:38.049Z,57.73
2023-01-19T13:48:15.448Z,53.87
2023-01-19T13:51:06.892Z,60.00
2023-01-19T13:53:39.575Z,52.25
2023-01-19T13:56:22.270Z,53.10
2023-01-19T13:59:05.357Z,50.17
2023-01-19T14:01:43.200Z,53.25
2023-01-19T14:04:34.581Z,61.92
2023-01-19T14:07:13.999Z,61.08
2023-01-19T14:09:46.783Z,66.65
2023-01-19T14:12:20.166Z,60.35
2023-01-19T14:14:53.358Z,65.57
2023-01-19T14:17:34.239Z,75.25
2023-01-19T14:20:09.074Z,80.67
2023-01-19T14:22:46.121Z,72.30
2023-01-19T14:25:39.763Z,68.80
2023-01-19T14:28:31.604Z,64.47
2023-01-19T14:31:21.139Z,57.23
2023-01-19T14:33:58.707Z,55.88
2023-01-19T14:36:40.648Z,53.10
2023-01-19T14:39:20.169Z,55.20
2023-01-19T14:41:54.616Z,67.53
2023-01-19T14:47:08.759Z,57.27
2023-01-19T14:49:43.114Z,65.87
2023-01-19T14:54:54.590Z,70.28
2023-01-19T14:57:27.404Z,61.40
2023-01-19T15:00:00.369Z,72.65
2023-01-19T15:02:34.244Z,66.17
2023-01-19T15:05:09.021Z,70.55
2023-01-19T15:07:45.007Z,69.60
2023-01-19T15:10:25.123Z,69.12
2023-01-19T15:12:58.516Z,72.62
2023-01-19T15:15:35.923Z,62.98
2023-01-19T15:18:12.523Z,73.78
2023-01-19T15:20:45.304Z,74.62
2023-01-19T15:23:18.193Z,70.40
2023-01-19T15:25:52.253Z,75.75
2023-01-19T15:30:58.043Z,65.72
2023-01-19T15:33:32.199Z,66.35
2023-01-19T15:36:05.815Z,63.90
2023-01-19T15:38:38.486Z,72.45
2023-01-19T15:41:23.288Z,61.00
2023-01-19T15:43:56.290Z,65.67
2023-01-19T15:46:29.506Z,72.10
2023-01-19T15:49:02.291Z,72.37
2023-01-19T15:51:35.322Z,68.95
2023-01-19T15:54:09.806Z,63.00
2023-01-19T15:56:43.100Z,61.10
2023-01-19T15:59:16.093Z,60.50
2023-01-19T16:01:51.217Z,61.55
2023-01-19T16:04:24.173Z,63.28
2023-01-19T16:06:56.996Z,67.62
2023-01-19T16:09:29.935Z,69.80
2023-01-19T16:12:02.836Z,70.45
2023-01-19T16:14:37.354Z,62.78
2023-01-19T16:17:11.893Z,85.05
2023-01-19T16:19:44.793Z,72.60
2023-01-19T16:22:17.783Z,73.15
2023-01-19T16:24:51.486Z,67.17
2023-01-19T16:27:25.636Z,67.27
2023-01-19T16:30:00.304Z,68.52
2023-01-19T16:32:36.924Z,81.05
2023-01-19T16:35:10.439Z,78.70
2023-01-19T16:37:43.970Z,82.70
2023-01-19T16:40:17.160Z,73.33
2023-01-19T16:42:49.913Z,68.00
2023-01-19T16:45:22.784Z,63.50
2023-01-19T16:47:55.649Z,75.67
2023-01-19T16:50:28.498Z,80.80
2023-01-19T16:53:01.887Z,87.37
2023-01-19T16:55:35.053Z,88.58
2023-01-19T16:58:07.923Z,85.75
2023-01-19T17:00:40.627Z,76.42
2023-01-19T17:03:13.486Z,65.87
2023-01-19T17:05:52.041Z,72.42
2023-01-19T17:08:24.737Z,69.62
2023-01-19T17:10:57.754Z,71.47
2023-01-19T17:13:31.877Z,77.32
2023-01-19T17:16:06.507Z,84.50
2023-01-19T17:18:40.063Z,68.42
2023-01-19T17:21:12.982Z,68.10
2023-01-19T17:23:47.799Z,80.42
2023-01-19T17:26:21.223Z,67.15
2023-01-19T17:28:54.023Z,69.87
2023-01-19T17:31:27.081Z,71.95
2023-01-19T17:34:00.823Z,66.90
2023-01-19T17:36:34.360Z,67.55
2023-01-19T17:39:11.722Z,69.30
2023-01-19T17:41:44.468Z,74.25
2023-01-19T17:44:17.251Z,71.72
2023-01-19T17:46:50.237Z,76.20
2023-01-19T17:49:23.127Z,67.87
2023-01-19T17:51:56.044Z,71.62
2023-01-19T17:54:28.953Z,67.50
2023-01-19T17:57:02.038Z,67.20
2023-01-19T17:59:35.056Z,71.60
2023-01-19T18:02:08.353Z,72.90
2023-01-19T18:04:41.933Z,75.72
2023-01-19T18:07:15.263Z,73.10
2023-01-19T18:09:48.166Z,69.20
2023-01-19T18:12:22.103Z,71.15
2023-01-19T18:14:54.905Z,66.33
2023-01-19T18:17:27.936Z,75.60
2023-01-19T18:20:01.598Z,66.97
2023-01-19T18:22:35.214Z,62.25
2023-01-19T18:25:09.089Z,64.13
2023-01-19T18:27:42.023Z,74.17
2023-01-19T18:30:16.495Z,67.40
2023-01-19T18:32:51.456Z,68.60
2023-01-19T18:35:24.411Z,68.07
2023-01-19T18:37:58.834Z,72.08
2023-01-19T18:43:03.482Z,76.25
2023-01-19T18:45:38.530Z,72.20
2023-01-19T18:48:11.395Z,74.58
2023-01-19T18:50:44.380Z,73.47
2023-01-19T18:53:17.627Z,74.42
2023-01-19T18:55:58.556Z,78.80
2023-01-19T18:58:32.882Z,79.00
2023-01-19T19:01:08.076Z,76.00
2023-01-19T19:03:41.102Z,74.80
2023-01-19T19:06:15.020Z,74.12
2023-01-19T19:08:49.961Z,67.03
2023-01-19T19:11:25.361Z,67.85
2023-01-19T19:14:00.983Z,70.12
2023-01-19T19:16:36.611Z,70.55
2023-01-19T19:19:10.315Z,73.65
2023-01-19T19:21:46.465Z,79.45
2023-01-19T19:24:19.492Z,71.10
2023-01-19T19:26:52.549Z,62.48
2023-01-19T19:29:25.401Z,59.90
2023-01-19T19:31:58.397Z,67.60
2023-01-19T19:34:31.628Z,57.67
2023-01-19T19:37:04.777Z,59.25
2023-01-19T19:39:38.582Z,65.67
2023-01-19T19:42:11.373Z,65.17
2023-01-19T19:44:44.369Z,60.33
2023-01-19T19:47:17.197Z,58.58
2023-01-19T19:49:50.069Z,60.55
2023-01-19T19:52:23.100Z,58.63
2023-01-19T19:54:56.476Z,57.85
2023-01-19T19:57:29.397Z,69.43
2023-01-19T20:00:02.972Z,64.47
2023-01-19T20:02:37.657Z,65.30
2023-01-19T20:05:10.880Z,86.47
2023-01-19T20:07:49.476Z,78.97
2023-01-19T20:10:22.482Z,70.12
2023-01-19T20:12:55.877Z,70.75
2023-01-19T20:15:28.708Z,74.67
2023-01-19T20:18:02.011Z,62.90
2023-01-19T20:20:36.002Z,61.88
2023-01-19T20:23:08.803Z,58.55
2023-01-19T20:25:41.922Z,62.23
2023-01-19T20:28:15.114Z,65.10
2023-01-19T20:30:48.221Z,65.90
2023-01-19T20:33:21.733Z,63.28
2023-01-19T20:35:54.797Z,61.42
2023-01-19T20:38:27.619Z,60.98
2023-01-19T20:41:00.528Z,59.00
2023-01-19T20:43:33.635Z,59.60
2023-01-19T20:46:07.311Z,56.92
2023-01-19T20:48:40.177Z,68.12
2023-01-19T20:51:14.341Z,65.67
2023-01-19T20:53:47.971Z,64.53
2023-01-19T20:56:21.236Z,65.37
2023-01-19T20:58:54.098Z,66.75
2023-01-19T21:01:27.454Z,72.67
2023-01-19T21:04:02.290Z,63.23
2023-01-19T21:06:35.245Z,68.62
2023-01-19T21:09:09.275Z,53.68
2023-01-19T21:11:42.329Z,66.45
2023-01-19T21:14:15.318Z,59.65
2023-01-19T21:16:48.060Z,58.95
2023-01-19T21:19:22.365Z,63.95
2023-01-19T21:21:55.618Z,61.63
2023-01-19T21:24:29.548Z,66.07
2023-01-19T21:27:02.206Z,62.95
2023-01-19T21:29:35.108Z,64.07
2023-01-19T21:32:08.577Z,67.32
2023-01-19T21:34:43.198Z,60.58
2023-01-19T21:37:16.217Z,62.48
2023-01-19T21:39:49.183Z,60.17
2023-01-19T21:42:21.970Z,62.20
2023-01-19T21:44:54.986Z,57.85
2023-01-19T21:47:27.969Z,59.35
2023-01-19T21:50:01.684Z,69.45
2023-01-19T21:52:34.931Z,60.58
2023-01-19T21:55:09.491Z,68.75
2023-01-19T21:57:42.277Z,69.35
2023-01-19T22:00:16.510Z,73.50
2023-01-19T22:03:02.710Z,67.82
2023-01-19T22:05:24.273Z,73.72
2023-01-19T22:07:56.880Z,68.83
2023-01-19T22:10:29.615Z,63.90
2023-01-19T22:13:03.410Z,63.35
2023-01-19T22:15:36.800Z,68.30
2023-01-19T22:18:09.669Z,68.20
2023-01-19T22:20:42.452Z,66.90
2023-01-19T22:23:15.493Z,61.23
2023-01-19T22:25:48.689Z,66.92
2023-01-19T22:28:21.681Z,60.77
2023-01-19T22:30:55.123Z,64.35
2023-01-19T22:33:29.841Z,65.83
2023-01-19T22:36:28.798Z,62.98
2023-01-19T22:39:07.964Z,65.35
2023-01-19T22:41:43.664Z,64.17
2023-01-19T22:44:22.346Z,60.15
2023-01-19T22:46:57.443Z,59.45
2023-01-19T22:49:30.772Z,61.92
2023-01-19T22:52:03.607Z,64.27
2023-01-19T22:54:36.784Z,65.12
2023-01-19T22:57:11.224Z,60.25
2023-01-19T22:59:44.054Z,66.10
2023-01-19T23:02:18.624Z,63.05
2023-01-19T23:04:51.538Z,62.48
2023-01-19T23:07:24.239Z,54.77
2023-01-19T23:09:57.245Z,62.08
2023-01-19T23:12:30.112Z,59.03
2023-01-19T23:15:03.410Z,64.37
2023-01-19T23:17:36.367Z,68.53
2023-01-19T23:20:11.358Z,67.20
2023-01-19T23:22:44.235Z,58.48
2023-01-19T23:25:17.274Z,67.67
2023-01-19T23:27:50.257Z,68.30
2023-01-19T23:30:23.413Z,68.72
2023-01-19T23:32:56.345Z,63.33
2023-01-19T23:35:29.494Z,72.72
2023-01-19T23:38:02.363Z,61.40
2023-01-19T23:40:35.254Z,68.10
2023-01-19T23:43:08.204Z,57.38
2023-01-19T23:45:40.945Z,66.75
2023-01-19T23:48:13.816Z,71.00
2023-01-19T23:50:46.631Z,69.37
2023-01-19T23:53:19.601Z,72.10
2023-01-19T23:55:52.447Z,57.98
2023-01-19T23:58:25.485Z,68.17
